Yangon, Myanmar

8:35 PM MMT on January 21, 2017 (GMT +0630)
Golden Valley | | Change Station

Elev 105 ft 16.82 °N, 96.14 °E | Updated 7 seconds ago

Partly Cloudy
Partly Cloudy
82.0 °F
Feels Like 82 °F
N
0.0
Wind Variable Wind from South
Gusts 0.0 mph

Today
High -- | Low -- °F
--% Chance of Precip.
Yesterday
High -- | Low -- °F
Precip. -- in
Pressure 29.95 in
Visibility 4.3 miles
Clouds Scattered Clouds 11000 ft
Heat Index 82 °F
Dew Point 59 °F
Humidity 45%
Rainfall 0.00 in
Snow Depth Not available.
6:37 AM 5:55 PM
Waning Crescent, 35% visible
METAR VYYY 211330Z 33003KT 7000 SCT110 29/20 Q1014
Pressure 29.95 in
Visibility 4.3 miles
Clouds Scattered Clouds 11000 ft
Heat Index 82 °F
Dew Point 59 °F
Humidity 45%
Rainfall 0.00 in
Snow Depth Not available.
6:37 AM 5:55 PM
Waning Crescent, 35% visible
METAR VYYY 211330Z 33003KT 7000 SCT110 29/20 Q1014

Get Your Daily Forecast Email!

Thanks for signing up!

Be on the lookout for a verification email in your inbox.

You'll start receiving the daily forecast at 8 AM.

×

10-Day Weather Forecast

No radar image for this location.
×

Almanac

Astronomy

Jan. 21, 2017 Rise Set
Actual Time
Civil Twilight
Nautical Twilight
Astronomical Twilight
Moon
Length of Visible Light
Length of Day
Tomorrow will be .
, % of the Moon is Illuminated

Today's Extremes

Country Highs Country Lows

Community

WunderPhotos

Upload Photos

1,962,540 photos uploaded!

WunderBlog® & News

Nearby

Air Quality

  Air Quality AQ Index Pollutant
Not available.

Snow Depth

Station Depth Elevation

Earthquake Activity

City Distance Mag. Time & Date
Minimum magnitude displayed is 2.5.

Coastal Water Temperatures

Place Temperature

Stations

Nearby Weather Stations

Station Location Temp. Windchill Dew Point Humidity Wind Precip. Elev Updated Type